上海/浦東 の空港の天気 - METARとTAF

上海浦東国際空港 ( ZSPD / PVG ) - 中華人民共和国 上海市
飛行場実況気象(Metar)
観測時間09/26 20:30 CST (09/26 12:30 UTC)
風向・風速不定 1m/s
視程10km以上
天気現象
少しの雲 雲底高度 790m
気温28℃
湿度84%
気圧1008hPa
METARZSPD 261230Z VRB01MPS 9999 FEW026CB 28/25 Q1008 NOSIG
過去の天気等 Google飛行場航空写真 Wunderground天気予報

過去48時間のMETAR

飛行場予報(TAF)
発表時間: 9/26 17:11 CST (9/26 09:11 UTC)
予報対象時間: 26日20時 CST ~ 27日20時 CST
風向・風速西南西 3m/s
視程5,000m
天気現象もや
全天の8割程度の雲 雲底高度 400m
27日0時 CST ~ 27日2時 CST に徐々に
風向・風速西北西 4m/s
TAF ZSPD 260911Z 2612/2712 25003MPS 5000 BR BKN013 TX31/2706Z TN22/2621Z
BECMG 2616/2618 29004MPS